sensor_id;sensor_type;location;lat;lon;timestamp;P1;durP1;ratioP1;P2;durP2;ratioP2
13753;SDS011;6948;51.216;6.778;2023-02-10T18:20:54;31.43;;;22.70;;
13753;SDS011;6948;51.216;6.778;2023-02-10T18:23:21;32.87;;;22.17;;
13753;SDS011;6948;51.216;6.778;2023-02-10T18:25:47;31.60;;;23.43;;
13753;SDS011;6948;51.216;6.778;2023-02-10T18:28:13;34.20;;;24.43;;
13753;SDS011;6948;51.216;6.778;2023-02-10T18:30:42;35.17;;;24.93;;
13753;SDS011;6948;51.216;6.778;2023-02-10T18:33:08;34.70;;;25.53;;
13753;SDS011;6948;51.216;6.778;2023-02-10T18:35:36;34.00;;;25.03;;
13753;SDS011;6948;51.216;6.778;2023-02-10T18:38:03;34.90;;;26.00;;
13753;SDS011;6948;51.216;6.778;2023-02-10T18:40:31;35.30;;;24.83;;
13753;SDS011;6948;51.216;6.778;2023-02-10T18:42:58;38.23;;;26.67;;
13753;SDS011;6948;51.216;6.778;2023-02-10T18:45:25;36.50;;;25.60;;
13753;SDS011;6948;51.216;6.778;2023-02-10T18:47:51;35.73;;;26.03;;
13753;SDS011;6948;51.216;6.778;2023-02-10T18:50:38;38.17;;;26.80;;
13753;SDS011;6948;51.216;6.778;2023-02-10T18:53:04;39.57;;;27.83;;
13753;SDS011;6948;51.216;6.778;2023-02-10T18:55:30;38.00;;;27.83;;
13753;SDS011;6948;51.216;6.778;2023-02-10T18:57:56;37.23;;;27.17;;
13753;SDS011;6948;51.216;6.778;2023-02-10T19:00:27;37.70;;;28.10;;
13753;SDS011;6948;51.216;6.778;2023-02-10T19:02:53;36.73;;;28.13;;
13753;SDS011;6948;51.216;6.778;2023-02-10T19:05:19;38.00;;;27.33;;
13753;SDS011;6948;51.216;6.778;2023-02-10T19:07:45;38.77;;;27.43;;
13753;SDS011;6948;51.216;6.778;2023-02-10T19:10:11;44.97;;;30.00;;
13753;SDS011;6948;51.216;6.778;2023-02-10T19:12:38;41.03;;;28.03;;
13753;SDS011;6948;51.216;6.778;2023-02-10T19:15:04;40.47;;;28.07;;
13753;SDS011;6948;51.216;6.778;2023-02-10T19:17:33;38.20;;;27.37;;
13753;SDS011;6948;51.216;6.778;2023-02-10T19:19:59;39.87;;;27.93;;
13753;SDS011;6948;51.216;6.778;2023-02-10T19:22:25;39.87;;;27.57;;
13753;SDS011;6948;51.216;6.778;2023-02-10T19:24:51;38.97;;;26.73;;
13753;SDS011;6948;51.216;6.778;2023-02-10T19:27:17;46.13;;;28.07;;
13753;SDS011;6948;51.216;6.778;2023-02-10T19:29:43;38.67;;;26.80;;
13753;SDS011;6948;51.216;6.778;2023-02-10T19:32:10;43.80;;;28.40;;
13753;SDS011;6948;51.216;6.778;2023-02-10T19:34:36;45.73;;;28.90;;
13753;SDS011;6948;51.216;6.778;2023-02-10T19:37:02;39.67;;;27.53;;
13753;SDS011;6948;51.216;6.778;2023-02-10T19:39:29;46.57;;;30.07;;
13753;SDS011;6948;51.216;6.778;2023-02-10T19:41:56;44.63;;;28.37;;
13753;SDS011;6948;51.216;6.778;2023-02-10T19:44:22;39.87;;;27.20;;
13753;SDS011;6948;51.216;6.778;2023-02-10T19:46:48;42.80;;;28.90;;
13753;SDS011;6948;51.216;6.778;2023-02-10T19:49:15;42.77;;;27.97;;
13753;SDS011;6948;51.216;6.778;2023-02-10T19:51:41;41.50;;;28.73;;
13753;SDS011;6948;51.216;6.778;2023-02-10T19:54:10;41.37;;;27.67;;
13753;SDS011;6948;51.216;6.778;2023-02-10T19:56:36;43.33;;;28.57;;
13753;SDS011;6948;51.216;6.778;2023-02-10T19:59:04;43.23;;;28.70;;
13753;SDS011;6948;51.216;6.778;2023-02-10T20:01:31;44.47;;;29.17;;
13753;SDS011;6948;51.216;6.778;2023-02-10T20:03:57;43.33;;;28.57;;
13753;SDS011;6948;51.216;6.778;2023-02-10T20:06:25;40.27;;;27.87;;
13753;SDS011;6948;51.216;6.778;2023-02-10T20:08:52;42.23;;;28.80;;
13753;SDS011;6948;51.216;6.778;2023-02-10T20:11:19;41.67;;;28.83;;
13753;SDS011;6948;51.216;6.778;2023-02-10T20:13:45;43.50;;;29.53;;
13753;SDS011;6948;51.216;6.778;2023-02-10T20:16:11;41.80;;;28.43;;
13753;SDS011;6948;51.216;6.778;2023-02-10T20:18:38;41.93;;;28.70;;
13753;SDS011;6948;51.216;6.778;2023-02-10T20:21:04;42.53;;;30.13;;
13753;SDS011;6948;51.216;6.778;2023-02-10T20:23:32;42.87;;;28.10;;
13753;SDS011;6948;51.216;6.778;2023-02-10T20:25:58;45.70;;;28.93;;
13753;SDS011;6948;51.216;6.778;2023-02-10T20:28:25;40.13;;;28.40;;
13753;SDS011;6948;51.216;6.778;2023-02-10T20:30:52;44.77;;;29.20;;
13753;SDS011;6948;51.216;6.778;2023-02-10T20:33:18;42.33;;;29.27;;
13753;SDS011;6948;51.216;6.778;2023-02-10T20:35:44;42.00;;;29.67;;
13753;SDS011;6948;51.216;6.778;2023-02-10T20:38:10;42.37;;;28.13;;
13753;SDS011;6948;51.216;6.778;2023-02-10T20:40:37;38.73;;;27.73;;
13753;SDS011;6948;51.216;6.778;2023-02-10T20:43:04;47.37;;;29.63;;
13753;SDS011;6948;51.216;6.778;2023-02-10T20:45:30;40.50;;;27.63;;
13753;SDS011;6948;51.216;6.778;2023-02-10T20:47:56;45.13;;;29.60;;
13753;SDS011;6948;51.216;6.778;2023-02-10T20:50:23;43.33;;;28.50;;
13753;SDS011;6948;51.216;6.778;2023-02-10T20:52:49;42.67;;;28.40;;
13753;SDS011;6948;51.216;6.778;2023-02-10T20:55:15;40.47;;;27.67;;
13753;SDS011;6948;51.216;6.778;2023-02-10T20:57:42;42.37;;;27.80;;
13753;SDS011;6948;51.216;6.778;2023-02-10T21:00:09;39.80;;;27.30;;
13753;SDS011;6948;51.216;6.778;2023-02-10T21:02:35;40.53;;;27.60;;
13753;SDS011;6948;51.216;6.778;2023-02-10T21:05:01;38.33;;;26.73;;
13753;SDS011;6948;51.216;6.778;2023-02-10T21:07:28;39.53;;;28.20;;
13753;SDS011;6948;51.216;6.778;2023-02-10T21:09:54;42.67;;;28.17;;
13753;SDS011;6948;51.216;6.778;2023-02-10T21:12:21;42.50;;;26.33;;
13753;SDS011;6948;51.216;6.778;2023-02-10T21:14:47;45.83;;;28.60;;
13753;SDS011;6948;51.216;6.778;2023-02-10T21:17:14;39.60;;;27.97;;
13753;SDS011;6948;51.216;6.778;2023-02-10T21:19:40;43.37;;;28.27;;
13753;SDS011;6948;51.216;6.778;2023-02-10T21:22:06;41.90;;;28.33;;
13753;SDS011;6948;51.216;6.778;2023-02-10T21:24:32;41.47;;;28.47;;
13753;SDS011;6948;51.216;6.778;2023-02-10T21:26:59;39.17;;;28.43;;
13753;SDS011;6948;51.216;6.778;2023-02-10T21:29:25;43.67;;;28.10;;
13753;SDS011;6948;51.216;6.778;2023-02-10T21:31:52;38.50;;;27.63;;
13753;SDS011;6948;51.216;6.778;2023-02-10T21:34:18;39.97;;;28.03;;
13753;SDS011;6948;51.216;6.778;2023-02-10T21:36:44;40.37;;;28.53;;
13753;SDS011;6948;51.216;6.778;2023-02-10T21:39:11;41.93;;;28.40;;
13753;SDS011;6948;51.216;6.778;2023-02-10T21:41:38;40.20;;;28.27;;
13753;SDS011;6948;51.216;6.778;2023-02-10T21:44:08;42.83;;;28.30;;
13753;SDS011;6948;51.216;6.778;2023-02-10T21:46:34;38.53;;;28.23;;
13753;SDS011;6948;51.216;6.778;2023-02-10T21:49:00;45.23;;;27.47;;
13753;SDS011;6948;51.216;6.778;2023-02-10T21:51:26;40.93;;;28.30;;
13753;SDS011;6948;51.216;6.778;2023-02-10T21:53:52;40.13;;;28.57;;
13753;SDS011;6948;51.216;6.778;2023-02-10T21:56:19;37.87;;;26.97;;
13753;SDS011;6948;51.216;6.778;2023-02-10T21:58:45;37.53;;;26.83;;
13753;SDS011;6948;51.216;6.778;2023-02-10T22:01:12;37.77;;;26.60;;
13753;SDS011;6948;51.216;6.778;2023-02-10T22:03:39;38.77;;;27.80;;
13753;SDS011;6948;51.216;6.778;2023-02-10T22:06:05;40.43;;;27.13;;
13753;SDS011;6948;51.216;6.778;2023-02-10T22:08:32;39.57;;;28.47;;
13753;SDS011;6948;51.216;6.778;2023-02-10T22:11:06;41.10;;;28.00;;
13753;SDS011;6948;51.216;6.778;2023-02-10T22:13:33;38.27;;;27.80;;
13753;SDS011;6948;51.216;6.778;2023-02-10T22:16:00;37.57;;;27.07;;
13753;SDS011;6948;51.216;6.778;2023-02-10T22:18:26;36.27;;;27.20;;
13753;SDS011;6948;51.216;6.778;2023-02-10T22:20:53;40.77;;;28.40;;
13753;SDS011;6948;51.216;6.778;2023-02-10T22:23:19;37.50;;;27.57;;
13753;SDS011;6948;51.216;6.778;2023-02-10T22:25:45;37.13;;;26.57;;
13753;SDS011;6948;51.216;6.778;2023-02-10T22:28:13;37.73;;;25.83;;
13753;SDS011;6948;51.216;6.778;2023-02-10T22:30:39;36.13;;;27.03;;
13753;SDS011;6948;51.216;6.778;2023-02-10T22:33:05;37.60;;;27.67;;
13753;SDS011;6948;51.216;6.778;2023-02-10T22:35:35;36.20;;;27.40;;
13753;SDS011;6948;51.216;6.778;2023-02-10T22:38:01;37.23;;;27.37;;
13753;SDS011;6948;51.216;6.778;2023-02-10T22:40:28;34.13;;;26.43;;
13753;SDS011;6948;51.216;6.778;2023-02-10T22:42:54;39.97;;;27.47;;
13753;SDS011;6948;51.216;6.778;2023-02-10T22:45:20;41.97;;;28.00;;
13753;SDS011;6948;51.216;6.778;2023-02-10T22:47:46;37.83;;;27.23;;
13753;SDS011;6948;51.216;6.778;2023-02-10T22:50:12;39.50;;;27.53;;
13753;SDS011;6948;51.216;6.778;2023-02-10T22:52:38;35.17;;;27.43;;
13753;SDS011;6948;51.216;6.778;2023-02-10T22:55:05;37.27;;;28.10;;
13753;SDS011;6948;51.216;6.778;2023-02-10T22:57:31;39.07;;;27.33;;
13753;SDS011;6948;51.216;6.778;2023-02-10T22:59:57;35.13;;;27.37;;
13753;SDS011;6948;51.216;6.778;2023-02-10T23:02:23;35.40;;;27.80;;
13753;SDS011;6948;51.216;6.778;2023-02-10T23:04:49;37.43;;;27.53;;
13753;SDS011;6948;51.216;6.778;2023-02-10T23:07:15;35.00;;;27.10;;
13753;SDS011;6948;51.216;6.778;2023-02-10T23:09:41;38.57;;;27.03;;
13753;SDS011;6948;51.216;6.778;2023-02-10T23:12:08;35.83;;;28.07;;
13753;SDS011;6948;51.216;6.778;2023-02-10T23:14:34;37.33;;;26.77;;
13753;SDS011;6948;51.216;6.778;2023-02-10T23:17:01;35.50;;;27.03;;
13753;SDS011;6948;51.216;6.778;2023-02-10T23:19:27;35.63;;;25.63;;
13753;SDS011;6948;51.216;6.778;2023-02-10T23:21:53;33.83;;;25.73;;
13753;SDS011;6948;51.216;6.778;2023-02-10T23:24:21;32.60;;;25.53;;
13753;SDS011;6948;51.216;6.778;2023-02-10T23:26:47;34.63;;;26.30;;
13753;SDS011;6948;51.216;6.778;2023-02-10T23:29:14;34.73;;;25.67;;
13753;SDS011;6948;51.216;6.778;2023-02-10T23:31:41;32.40;;;25.40;;
13753;SDS011;6948;51.216;6.778;2023-02-10T23:34:08;33.00;;;25.77;;
13753;SDS011;6948;51.216;6.778;2023-02-10T23:36:34;31.63;;;24.97;;
13753;SDS011;6948;51.216;6.778;2023-02-10T23:39:00;30.17;;;24.00;;
13753;SDS011;6948;51.216;6.778;2023-02-10T23:41:29;31.33;;;24.23;;
13753;SDS011;6948;51.216;6.778;2023-02-10T23:43:55;32.80;;;25.03;;
13753;SDS011;6948;51.216;6.778;2023-02-10T23:46:21;30.97;;;24.50;;
13753;SDS011;6948;51.216;6.778;2023-02-10T23:48:48;30.10;;;24.20;;
13753;SDS011;6948;51.216;6.778;2023-02-10T23:51:15;31.37;;;23.43;;
13753;SDS011;6948;51.216;6.778;2023-02-10T23:53:41;30.10;;;24.10;;
13753;SDS011;6948;51.216;6.778;2023-02-10T23:56:09;28.77;;;22.67;;
13753;SDS011;6948;51.216;6.778;2023-02-10T23:58:35;30.10;;;24.03;;
